»·PEaware :: DAL2062 KSLC-KGJT

DAL2062 :: KSLC-KGJT

FLIGHT INFORMATION

Flight Status: Arrived
Operator:
Delta Air Lines
More flights by this operator :: More flights under this callsign
Pilot: Jacob S. (13841)
Aircraft: BOEING 737-800
(B738)
More flights by this aircraft type
Origin: KSLC Salt Lake City Intl
United States
Destination: KGJT Walker
United States
More flights between these airports :: More routes between these airports
Route: +LEETZ6 MTU JNC
File this flight plan on PilotEdge
Remarks:
Altitude:
(Current/Filed)
280ft
Speed:
(Current/Filed)
420kts
Departed: 02-Nov-17 06:06 PM
Arrived: 02-Nov-17 06:50 PM
Distance/Time
Traveled:
188nm/0:44
Distance/Time
To Go:
Arrived

Flight Plot

Page will automatically refresh every two minutes.

Flight plan parsing failed; only flown route is shown


Map Options




Map Legend


Flown Route
Filed Route
Departure Airport
Arrival Airport
Navaid (VOR, NDB)
Fix

Horizontal Profiles

Position Reports

Time Latitude Longitude Heading Altitude Ground
Speed
02-Nov-17 17:52 40.788153 -111.983986 252 4235ft 0kts
02-Nov-17 17:53 40.788153 -111.983986 252 4235ft 0kts
02-Nov-17 17:54 40.788153 -111.983986 252 4235ft 0kts
02-Nov-17 17:55 40.788153 -111.983986 252 4235ft 0kts
02-Nov-17 17:56 40.788153 -111.983986 252 4235ft 0kts
02-Nov-17 17:57 40.788153 -111.983986 252 4235ft 0kts
02-Nov-17 17:58 40.788153 -111.983986 252 4235ft 0kts
02-Nov-17 17:59 40.788153 -111.983986 252 4235ft 0kts
02-Nov-17 18:00 40.788153 -111.983986 252 4235ft 0kts
02-Nov-17 18:01 40.788153 -111.983986 252 4235ft 0kts
02-Nov-17 18:02 40.788153 -111.983986 252 4235ft 0kts
02-Nov-17 18:03 40.788219 -111.983708 252 4235ft 2kts
02-Nov-17 18:04 40.788323 -111.983267 252 4235ft 0kts
02-Nov-17 18:05 40.788323 -111.983267 252 4235ft 0kts
02-Nov-17 18:06 40.788323 -111.983268 252 4235ft 0kts
02-Nov-17 18:07 40.788322 -111.983270 252 4235ft 0kts
02-Nov-17 18:08 40.789149 -111.983468 48 4235ft 8kts
02-Nov-17 18:09 40.790107 -111.977542 82 4235ft 15kts
02-Nov-17 18:10 40.797706 -111.977912 355 4235ft 34kts
02-Nov-17 18:11 40.805096 -111.978838 356 4235ft 42kts
02-Nov-17 18:12 40.806313 -111.977844 84 4235ft 6kts
02-Nov-17 18:13 40.785582 -111.974413 175 4487ft 181kts
02-Nov-17 18:14 40.743169 -112.016264 262 5928ft 235kts
02-Nov-17 18:15 40.772206 -112.087873 311 6947ft 237kts
02-Nov-17 18:16 40.826234 -112.157166 312 8736ft 284kts
02-Nov-17 18:17 40.886060 -112.226053 333 10684ft 291kts
02-Nov-17 18:18 40.956963 -112.186327 65 12683ft 318kts
02-Nov-17 18:19 40.940971 -112.075576 121 14706ft 322kts
02-Nov-17 18:20 40.897523 -111.968814 123 16707ft 338kts
02-Nov-17 18:21 40.851762 -111.856775 123 18710ft 355kts
02-Nov-17 18:22 40.803532 -111.739753 123 20718ft 369kts
02-Nov-17 18:23 40.753863 -111.617546 118 22722ft 388kts
02-Nov-17 18:24 40.714842 -111.481401 114 24722ft 404kts
02-Nov-17 18:25 40.674258 -111.340713 115 26728ft 412kts
02-Nov-17 18:26 40.632767 -111.197795 115 27988ft 438kts
02-Nov-17 18:27 40.586361 -111.038885 114 27999ft 488kts
02-Nov-17 18:28 40.537167 -110.869576 114 28031ft 508kts
02-Nov-17 18:29 40.485704 -110.693291 114 28034ft 506kts
02-Nov-17 18:30 40.436381 -110.527522 116 28042ft 477kts
02-Nov-17 18:31 40.360771 -110.392040 143 28031ft 444kts
02-Nov-17 18:32 40.273630 -110.284346 142 28034ft 427kts
02-Nov-17 18:33 40.188235 -110.176555 142 27627ft 419kts
02-Nov-17 18:34 40.104785 -110.071711 142 26729ft 419kts
02-Nov-17 18:35 40.020243 -109.966497 142 25827ft 419kts
02-Nov-17 18:36 39.936304 -109.862436 142 24361ft 414kts
02-Nov-17 18:37 39.853651 -109.759767 141 22562ft 407kts
02-Nov-17 18:38 39.772172 -109.658852 141 20762ft 400kts
02-Nov-17 18:39 39.692153 -109.560228 141 18963ft 393kts
02-Nov-17 18:40 39.613405 -109.463590 140 17158ft 384kts
02-Nov-17 18:41 39.538229 -109.371624 140 16207ft 353kts
02-Nov-17 18:42 39.470390 -109.288921 141 15696ft 319kts
02-Nov-17 18:43 39.408202 -109.213268 141 15188ft 301kts
02-Nov-17 18:44 39.345014 -109.136555 140 15037ft 312kts
02-Nov-17 18:45 39.284226 -109.062812 141 15061ft 294kts
02-Nov-17 18:46 39.234162 -109.002177 141 14461ft 296kts
02-Nov-17 18:47 39.164332 -108.918157 140 12439ft 298kts
02-Nov-17 18:48 39.150193 -108.819504 49 9419ft 317kts
02-Nov-17 18:49 39.212532 -108.791299 10 8101ft 263kts
02-Nov-17 18:50 39.243904 -108.736193 131 6964ft 169kts
02-Nov-17 18:51 39.218761 -108.696775 129 7000ft 170kts
02-Nov-17 18:52 39.191441 -108.647121 128 6845ft 172kts
02-Nov-17 18:53 39.164218 -108.597525 127 5919ft 164kts
02-Nov-17 18:54 39.138787 -108.551140 125 5046ft 153kts
02-Nov-17 18:55 39.124717 -108.525638 126 4866ft 10kts
02-Nov-17 18:56 39.122553 -108.525192 32 4866ft 0kts

Navigation Log

Ident Type
Flight plan parsing failed, navigation log unavailable